createdAt,value
2018-08-17T00:00:45.938Z,36.98
2018-08-17T00:01:45.892Z,39.84
2018-08-17T00:02:45.851Z,43.19
2018-08-17T00:03:45.829Z,43.57
2018-08-17T00:04:45.789Z,37.55
2018-08-17T00:05:45.771Z,35.93
2018-08-17T00:06:45.729Z,35.83
2018-08-17T00:07:45.691Z,34.78
2018-08-17T00:08:45.652Z,36.88
2018-08-17T00:09:45.644Z,39.94
2018-08-17T00:10:45.594Z,36.21
2018-08-17T00:11:45.543Z,35.33
2018-08-17T00:12:45.514Z,32.28
2018-08-17T00:13:45.464Z,30.85
2018-08-17T00:14:45.457Z,22.63
2018-08-17T00:15:45.426Z,19.01
2018-08-17T00:16:45.375Z,19.96
2018-08-17T00:17:45.339Z,16.81
2018-08-17T00:18:45.307Z,19.96
2018-08-17T00:19:45.280Z,24.07
2018-08-17T00:20:45.254Z,25.60
2018-08-17T00:21:45.204Z,25.89
2018-08-17T00:22:45.180Z,31.24
2018-08-17T00:23:45.129Z,27.80
2018-08-17T00:24:45.122Z,31.43
2018-08-17T00:25:45.077Z,37.26
2018-08-17T00:26:45.040Z,36.48
2018-08-17T00:27:45.016Z,23.69
2018-08-17T00:28:44.961Z,24.27
2018-08-17T00:29:44.910Z,24.74
2018-08-17T00:30:44.892Z,23.60
2018-08-17T00:31:44.843Z,24.74
2018-08-17T00:32:44.841Z,29.24
2018-08-17T00:33:44.789Z,37.46
2018-08-17T00:34:44.753Z,41.18
2018-08-17T00:35:44.700Z,35.05
2018-08-17T00:36:44.674Z,29.43
2018-08-17T00:37:44.676Z,37.53
2018-08-17T00:38:44.607Z,36.58
2018-08-17T00:39:44.572Z,31.80
2018-08-17T00:40:44.526Z,23.97
2018-08-17T00:41:44.518Z,23.03
2018-08-17T00:42:44.472Z,26.56
2018-08-17T00:43:44.436Z,28.19
2018-08-17T00:44:44.422Z,30.96
2018-08-17T00:45:44.354Z,28.09
2018-08-17T00:46:44.318Z,25.03
2018-08-17T00:47:44.315Z,24.27
2018-08-17T00:48:44.276Z,30.86
2018-08-17T00:49:44.219Z,42.90
2018-08-17T00:50:44.182Z,37.17
2018-08-17T00:51:44.143Z,33.25
2018-08-17T00:52:44.116Z,35.91
2018-08-17T00:53:44.063Z,35.82
2018-08-17T00:54:44.058Z,32.37
2018-08-17T00:55:44.016Z,30.37
2018-08-17T00:56:43.969Z,29.99
2018-08-17T00:57:43.933Z,24.07
2018-08-17T00:58:43.892Z,19.97
2018-08-17T00:59:43.893Z,21.30
2018-08-17T01:00:43.841Z,27.22
2018-08-17T01:01:43.794Z,29.99
2018-08-17T01:02:43.758Z,28.08
2018-08-17T01:03:43.719Z,27.70
2018-08-17T01:04:43.702Z,25.88
2018-08-17T01:05:43.645Z,21.30
2018-08-17T01:06:43.612Z,21.20
2018-08-17T01:07:43.576Z,20.25
2018-08-17T01:08:43.547Z,15.37
2018-08-17T01:09:43.520Z,31.13
2018-08-17T01:10:43.466Z,19.48
2018-08-17T01:11:43.443Z,19.48
2018-08-17T01:12:43.414Z,28.08
2018-08-17T01:13:43.373Z,26.64
2018-08-17T01:14:43.348Z,22.44
2018-08-17T01:15:43.286Z,17.29
2018-08-17T01:16:43.256Z,24.73
2018-08-17T01:17:43.221Z,21.58
2018-08-17T01:18:43.185Z,20.15
2018-08-17T01:19:43.142Z,19.57
2018-08-17T01:20:43.118Z,17.00
2018-08-17T01:21:43.089Z,15.56
2018-08-17T01:22:43.062Z,12.79
2018-08-17T01:23:43.022Z,14.80
2018-08-17T01:24:42.974Z,17.85
2018-08-17T01:25:42.939Z,18.71
2018-08-17T01:26:42.891Z,17.08
2018-08-17T01:27:42.871Z,14.32
2018-08-17T01:28:42.824Z,9.92
2018-08-17T01:29:42.797Z,10.02
2018-08-17T01:30:42.763Z,7.35
2018-08-17T01:31:42.728Z,7.64
2018-08-17T01:32:42.692Z,5.54
2018-08-17T01:33:42.664Z,2.00
2018-08-17T01:34:42.627Z,4.49
2018-08-17T01:35:42.598Z,5.35
2018-08-17T01:36:42.558Z,7.06
2018-08-17T01:37:42.522Z,2.19
2018-08-17T01:38:42.492Z,4.01
2018-08-17T01:39:42.472Z,4.10
2018-08-17T01:40:42.409Z,7.54
2018-08-17T01:41:42.396Z,15.66
2018-08-17T01:42:42.342Z,14.13
2018-08-17T01:43:42.311Z,21.39
2018-08-17T01:44:42.261Z,24.16
2018-08-17T01:45:42.223Z,21.48
2018-08-17T01:46:42.196Z,16.61
2018-08-17T01:47:42.159Z,10.31
2018-08-17T01:48:42.114Z,8.40
2018-08-17T01:49:42.104Z,5.63
2018-08-17T01:50:42.043Z,5.92
2018-08-17T01:51:42.026Z,8.88
2018-08-17T01:52:41.980Z,12.89
2018-08-17T01:53:41.954Z,11.65
2018-08-17T01:54:41.932Z,10.88
2018-08-17T01:55:41.871Z,14.70
2018-08-17T01:56:41.837Z,11.55
2018-08-17T01:57:41.821Z,5.92
2018-08-17T01:58:41.770Z,5.54
2018-08-17T01:59:41.729Z,5.16
2018-08-17T02:00:41.705Z,4.87
2018-08-17T02:01:41.672Z,7.64
2018-08-17T02:02:41.628Z,13.18
2018-08-17T02:03:41.595Z,18.91
2018-08-17T02:04:41.547Z,15.85
2018-08-17T02:05:41.516Z,10.60
2018-08-17T02:06:41.509Z,6.97
2018-08-17T02:07:41.466Z,8.69
2018-08-17T02:08:41.414Z,10.50
2018-08-17T02:09:41.376Z,10.50
2018-08-17T02:10:41.337Z,6.11
2018-08-17T02:11:41.291Z,7.45
2018-08-17T02:12:41.296Z,5.05
2018-08-17T02:13:41.225Z,6.59
2018-08-17T02:14:41.276Z,6.11
2018-08-17T02:15:41.167Z,5.91
2018-08-17T02:16:41.130Z,4.29
2018-08-17T02:17:41.091Z,0.76
2018-08-17T02:18:41.100Z,0.38
2018-08-17T02:19:41.059Z,0.00
2018-08-17T02:20:40.977Z,0.00
2018-08-17T02:21:40.943Z,0.00
2018-08-17T02:22:40.914Z,0.00
2018-08-17T02:23:40.866Z,0.00
2018-08-17T02:24:40.836Z,0.00
2018-08-17T02:25:40.815Z,0.00
2018-08-17T02:26:40.766Z,0.00
2018-08-17T02:27:40.730Z,0.00
2018-08-17T02:28:40.691Z,0.00
2018-08-17T02:29:40.674Z,0.00
2018-08-17T02:30:40.643Z,0.00
2018-08-17T02:31:40.577Z,0.00
2018-08-17T02:32:40.546Z,0.00
2018-08-17T02:33:40.523Z,0.00
2018-08-17T02:34:40.475Z,0.00
2018-08-17T02:35:40.441Z,0.00
2018-08-17T02:36:40.441Z,0.00
2018-08-17T02:37:40.383Z,0.00
2018-08-17T02:38:40.325Z,0.00
2018-08-17T02:39:40.303Z,0.00
2018-08-17T02:40:40.262Z,0.00
2018-08-17T02:41:40.233Z,0.00
2018-08-17T02:42:40.205Z,0.00
2018-08-17T02:43:40.179Z,0.00
2018-08-17T02:44:40.119Z,0.00
2018-08-17T02:45:40.098Z,0.00
2018-08-17T02:46:40.081Z,0.00
2018-08-17T02:47:40.019Z,0.00
2018-08-17T02:48:39.983Z,0.00
2018-08-17T02:49:39.949Z,0.00
2018-08-17T02:50:39.907Z,0.00
2018-08-17T02:51:39.892Z,3.91
2018-08-17T02:52:39.847Z,5.54
2018-08-17T02:53:39.831Z,4.68
2018-08-17T02:54:39.753Z,3.15
2018-08-17T02:55:39.731Z,2.96
2018-08-17T02:56:39.693Z,5.44
2018-08-17T02:57:39.669Z,9.83
2018-08-17T02:58:39.624Z,11.45
2018-08-17T02:59:39.682Z,7.16
2018-08-17T03:00:39.559Z,7.82
2018-08-17T03:01:39.530Z,2.58
2018-08-17T03:02:39.485Z,0.00
2018-08-17T03:03:39.457Z,0.00
2018-08-17T03:04:39.421Z,0.28
2018-08-17T03:05:39.379Z,3.53
2018-08-17T03:06:39.346Z,2.48
2018-08-17T03:07:39.306Z,0.00
2018-08-17T03:08:39.277Z,0.00
2018-08-17T03:09:39.257Z,0.00
2018-08-17T03:10:39.205Z,0.00
2018-08-17T03:11:39.175Z,0.28
2018-08-17T03:12:39.128Z,3.81
2018-08-17T03:13:39.091Z,3.34
2018-08-17T03:14:39.063Z,2.48
2018-08-17T03:15:39.009Z,1.24
2018-08-17T03:16:38.971Z,1.43
2018-08-17T03:17:38.968Z,3.53
2018-08-17T03:18:38.911Z,5.44
2018-08-17T03:19:38.870Z,8.87
2018-08-17T03:20:38.853Z,12.31
2018-08-17T03:21:38.797Z,6.68
2018-08-17T03:22:38.772Z,7.82
2018-08-17T03:23:38.736Z,2.95
2018-08-17T03:24:38.704Z,4.77
2018-08-17T03:25:38.684Z,0.00
2018-08-17T03:26:38.626Z,0.00
2018-08-17T03:27:38.594Z,0.00
2018-08-17T03:28:38.672Z,0.00
2018-08-17T03:29:38.524Z,0.00
2018-08-17T03:30:38.509Z,0.00
2018-08-17T03:31:38.458Z,0.00
2018-08-17T03:32:38.412Z,0.00
2018-08-17T03:33:38.382Z,0.00
2018-08-17T03:34:38.363Z,0.00
2018-08-17T03:35:38.290Z,0.00
2018-08-17T03:36:38.259Z,0.00
2018-08-17T03:37:38.241Z,0.00
2018-08-17T03:38:38.193Z,0.00
2018-08-17T03:39:38.164Z,0.00
2018-08-17T03:40:38.129Z,0.00
2018-08-17T03:41:38.088Z,0.00
2018-08-17T03:42:38.037Z,0.00
2018-08-17T03:43:38.006Z,0.00
2018-08-17T03:44:37.991Z,0.00
2018-08-17T03:45:37.947Z,0.00
2018-08-17T03:46:37.902Z,0.00
2018-08-17T03:47:38.060Z,0.00
2018-08-17T03:48:37.835Z,0.00
2018-08-17T03:49:37.797Z,2.48
2018-08-17T03:50:37.784Z,2.10
2018-08-17T03:51:37.738Z,2.95
2018-08-17T03:52:37.698Z,0.00
2018-08-17T03:53:37.675Z,0.00
2018-08-17T03:54:37.624Z,0.00
2018-08-17T03:55:37.606Z,0.00
2018-08-17T03:56:37.539Z,0.09
2018-08-17T03:57:37.587Z,0.00
2018-08-17T03:58:37.490Z,0.00
2018-08-17T03:59:37.431Z,0.00
2018-08-17T04:00:37.413Z,0.76
2018-08-17T04:01:37.367Z,0.00
2018-08-17T04:02:37.328Z,0.00
2018-08-17T04:03:37.304Z,0.00
2018-08-17T04:04:37.268Z,0.00
2018-08-17T04:05:37.269Z,0.00
2018-08-17T04:06:37.186Z,0.00
2018-08-17T04:07:37.151Z,0.00
2018-08-17T04:08:37.152Z,0.00
2018-08-17T04:09:37.096Z,0.00
2018-08-17T04:10:37.076Z,0.00
2018-08-17T04:11:37.007Z,0.00
2018-08-17T04:12:36.980Z,0.00
2018-08-17T04:13:36.932Z,0.00
2018-08-17T04:14:36.916Z,0.00
2018-08-17T04:15:36.992Z,0.00
2018-08-17T04:16:36.840Z,0.00
2018-08-17T04:17:36.802Z,0.00
2018-08-17T04:18:36.772Z,0.00
2018-08-17T04:19:36.714Z,0.00
2018-08-17T04:20:36.764Z,4.00
2018-08-17T04:21:36.655Z,3.05
2018-08-17T04:22:36.619Z,4.10
2018-08-17T04:23:36.591Z,6.49
2018-08-17T04:24:36.536Z,7.73
2018-08-17T04:25:36.507Z,9.26
2018-08-17T04:26:36.456Z,8.97
2018-08-17T04:27:36.454Z,6.21
2018-08-17T04:28:36.416Z,8.21
2018-08-17T04:29:36.357Z,12.03
2018-08-17T04:30:36.336Z,9.74
2018-08-17T04:31:36.284Z,7.83
2018-08-17T04:32:36.263Z,6.87
2018-08-17T04:33:36.202Z,7.26
2018-08-17T04:34:36.192Z,9.07
2018-08-17T04:35:36.163Z,10.98
2018-08-17T04:36:36.113Z,12.79
2018-08-17T04:37:36.086Z,14.04
2018-08-17T04:38:36.067Z,12.32
2018-08-17T04:39:36.043Z,12.32
2018-08-17T04:40:35.971Z,15.28
2018-08-17T04:41:35.993Z,14.99
2018-08-17T04:42:35.931Z,12.99
2018-08-17T04:43:35.917Z,10.88
2018-08-17T04:44:35.832Z,8.88
2018-08-17T04:45:35.807Z,7.92
2018-08-17T04:46:35.755Z,8.78
2018-08-17T04:47:35.728Z,9.26
2018-08-17T04:48:35.689Z,8.97
2018-08-17T04:49:35.639Z,9.74
2018-08-17T04:50:35.628Z,7.35
2018-08-17T04:51:35.623Z,6.40
2018-08-17T04:52:35.590Z,7.64
2018-08-17T04:53:35.515Z,12.04
2018-08-17T04:54:35.479Z,15.67
2018-08-17T04:55:35.439Z,15.48
2018-08-17T04:56:35.410Z,18.06
2018-08-17T04:57:35.366Z,17.86
2018-08-17T04:58:35.344Z,17.58
2018-08-17T04:59:35.328Z,20.54
2018-08-17T05:00:35.255Z,24.94
2018-08-17T05:01:35.217Z,21.59
2018-08-17T05:02:35.208Z,22.36
2018-08-17T05:03:35.175Z,25.03
2018-08-17T05:04:35.124Z,29.52
2018-08-17T05:05:35.127Z,31.82
2018-08-17T05:06:35.075Z,35.66
2018-08-17T05:07:35.063Z,37.09
2018-08-17T05:08:34.986Z,37.19
2018-08-17T05:09:34.959Z,40.15
2018-08-17T05:10:34.900Z,42.64
2018-08-17T05:11:34.922Z,43.40
2018-08-17T05:12:34.870Z,43.59
2018-08-17T05:13:34.818Z,45.41
2018-08-17T05:14:34.789Z,44.65
2018-08-17T05:15:34.733Z,44.07
2018-08-17T05:16:34.715Z,44.45
2018-08-17T05:17:34.682Z,46.37
2018-08-17T05:18:34.647Z,44.17
2018-08-17T05:19:34.601Z,44.38
2018-08-17T05:20:34.565Z,48.30
2018-08-17T05:21:34.628Z,53.37
2018-08-17T05:22:34.504Z,52.61
2018-08-17T05:23:34.463Z,50.12
2018-08-17T05:24:34.411Z,50.41
2018-08-17T05:25:34.389Z,46.30
2018-08-17T05:26:34.338Z,46.77
2018-08-17T05:27:34.303Z,48.23
2018-08-17T05:28:34.305Z,51.48
2018-08-17T05:29:34.244Z,52.73
2018-08-17T05:30:34.212Z,52.83
2018-08-17T05:31:34.179Z,57.23
2018-08-17T05:32:34.132Z,56.75
2018-08-17T05:33:34.117Z,56.08
2018-08-17T05:34:34.073Z,57.99
2018-08-17T05:35:34.036Z,60.32
2018-08-17T05:36:34.024Z,60.22
2018-08-17T05:37:33.979Z,61.18
2018-08-17T05:38:33.950Z,61.94
2018-08-17T05:39:33.912Z,62.90
2018-08-17T05:40:33.872Z,67.54
2018-08-17T05:41:33.848Z,69.45
2018-08-17T05:42:33.811Z,75.48
2018-08-17T05:43:33.802Z,78.45
2018-08-17T05:44:33.745Z,82.19
2018-08-17T05:45:33.704Z,80.94
2018-08-17T05:46:33.672Z,79.80
2018-08-17T05:47:33.638Z,79.22
2018-08-17T05:48:33.613Z,76.39
2018-08-17T05:49:33.565Z,77.25
2018-08-17T05:50:33.539Z,84.05
2018-08-17T05:51:33.493Z,83.95
2018-08-17T05:52:33.474Z,82.81
2018-08-17T05:53:33.448Z,89.37
2018-08-17T05:54:33.420Z,92.05
2018-08-17T05:55:33.374Z,92.63
2018-08-17T05:56:33.389Z,94.74
2018-08-17T05:57:33.305Z,98.77
2018-08-17T05:58:33.266Z,92.10
2018-08-17T05:59:33.229Z,95.46
2018-08-17T06:00:33.235Z,99.99
2018-08-17T06:01:33.169Z,99.99
2018-08-17T06:02:33.140Z,99.99
2018-08-17T06:03:33.098Z,99.99
2018-08-17T06:04:33.088Z,99.99
2018-08-17T06:05:33.037Z,99.99
2018-08-17T06:06:33.007Z,99.99
2018-08-17T06:07:32.973Z,99.99
2018-08-17T06:08:32.945Z,99.99
2018-08-17T06:09:32.897Z,99.99
2018-08-17T06:10:32.878Z,99.99
2018-08-17T06:11:32.871Z,99.99
2018-08-17T06:12:32.808Z,99.99
2018-08-17T06:13:32.775Z,99.99
2018-08-17T06:14:32.748Z,99.99
2018-08-17T06:15:32.728Z,99.99
2018-08-17T06:16:32.677Z,99.99
2018-08-17T06:17:32.671Z,99.99
2018-08-17T06:18:32.618Z,99.99
2018-08-17T06:19:32.605Z,99.99
2018-08-17T06:20:32.577Z,99.99
2018-08-17T06:21:32.566Z,99.99
2018-08-17T06:22:32.484Z,99.99
2018-08-17T06:23:32.463Z,99.99
2018-08-17T06:24:32.414Z,99.99
2018-08-17T06:25:32.388Z,99.99
2018-08-17T06:26:32.368Z,99.99
2018-08-17T06:27:32.336Z,99.99
2018-08-17T06:28:32.284Z,99.99
2018-08-17T06:29:32.262Z,99.99
2018-08-17T06:30:32.223Z,99.99
2018-08-17T06:31:32.240Z,99.99
2018-08-17T06:32:32.181Z,99.99
2018-08-17T06:33:32.168Z,99.99
2018-08-17T06:34:32.101Z,99.99
2018-08-17T06:35:32.096Z,99.99
2018-08-17T06:36:32.040Z,99.99
2018-08-17T06:37:32.054Z,99.99
2018-08-17T06:38:32.029Z,99.99
2018-08-17T06:39:31.941Z,99.99
2018-08-17T06:40:31.918Z,99.99
2018-08-17T06:41:31.906Z,99.99
2018-08-17T06:42:31.857Z,99.99
2018-08-17T06:43:31.814Z,99.99
2018-08-17T06:44:31.794Z,99.99
2018-08-17T06:45:31.766Z,99.99
2018-08-17T06:46:31.750Z,99.99
2018-08-17T06:47:31.723Z,99.99
2018-08-17T06:48:31.663Z,99.99
2018-08-17T06:49:31.635Z,99.99
2018-08-17T06:50:32.422Z,99.99
2018-08-17T06:51:31.585Z,99.99
2018-08-17T06:52:31.605Z,99.99
2018-08-17T06:53:31.580Z,99.99
2018-08-17T06:54:31.478Z,99.99
2018-08-17T06:55:31.452Z,99.99
2018-08-17T06:56:31.426Z,99.99
2018-08-17T06:57:31.416Z,99.99
2018-08-17T06:58:31.388Z,99.99
2018-08-17T06:59:31.350Z,99.99
2018-08-17T07:00:31.295Z,99.99
2018-08-17T07:01:31.271Z,99.99
2018-08-17T07:02:31.248Z,99.99
2018-08-17T07:03:31.256Z,91.47
2018-08-17T07:04:31.181Z,84.34
2018-08-17T07:05:31.156Z,82.38
2018-08-17T07:06:31.125Z,79.22
2018-08-17T07:07:31.098Z,73.39
2018-08-17T07:08:31.086Z,66.08
2018-08-17T07:09:31.077Z,70.26
2018-08-17T07:10:31.018Z,64.26
2018-08-17T07:11:30.989Z,62.76
2018-08-17T07:12:30.971Z,54.02
2018-08-17T07:13:30.936Z,54.27
2018-08-17T07:14:30.916Z,52.08
2018-08-17T07:15:30.882Z,51.42
2018-08-17T07:16:30.906Z,48.28
2018-08-17T07:17:30.834Z,52.27
2018-08-17T07:18:30.797Z,51.49
2018-08-17T07:19:30.782Z,51.49
2018-08-17T07:20:30.765Z,48.94
2018-08-17T07:21:30.783Z,48.07
2018-08-17T07:22:30.705Z,48.26
2018-08-17T07:23:30.687Z,47.67
2018-08-17T07:24:30.660Z,49.36
2018-08-17T07:25:30.654Z,47.50
2018-08-17T07:26:30.626Z,46.94
2018-08-17T07:27:30.598Z,46.23
2018-08-17T07:28:30.566Z,46.53
2018-08-17T07:29:30.555Z,47.41
2018-08-17T07:30:30.535Z,48.19
2018-08-17T07:31:30.522Z,47.28
2018-08-17T07:32:30.485Z,47.89
2018-08-17T07:33:30.468Z,47.53
2018-08-17T07:34:30.442Z,46.77
2018-08-17T07:35:30.456Z,48.97
2018-08-17T07:36:30.411Z,47.81
2018-08-17T07:37:30.408Z,44.46
2018-08-17T07:38:30.375Z,46.64
2018-08-17T07:39:30.344Z,48.80
2018-08-17T07:40:30.329Z,53.81
2018-08-17T07:41:30.342Z,53.78
2018-08-17T07:42:30.295Z,55.71
2018-08-17T07:43:30.255Z,54.75
2018-08-17T07:44:30.239Z,54.56
2018-08-17T07:45:30.491Z,55.73
2018-08-17T07:46:30.193Z,55.10
2018-08-17T07:47:30.177Z,53.27
2018-08-17T07:48:30.163Z,52.59
2018-08-17T07:49:30.134Z,51.86
2018-08-17T07:50:30.120Z,53.88
2018-08-17T07:51:30.131Z,52.25
2018-08-17T07:52:30.089Z,53.15
2018-08-17T07:53:30.086Z,54.22
2018-08-17T07:54:30.070Z,52.20
2018-08-17T07:55:30.036Z,52.81
2018-08-17T07:56:30.011Z,51.39
2018-08-17T07:57:29.981Z,47.87
2018-08-17T07:58:29.971Z,47.40
2018-08-17T07:59:29.966Z,46.40
2018-08-17T08:00:29.926Z,46.33
2018-08-17T08:01:29.906Z,47.36
2018-08-17T08:02:29.913Z,48.19
2018-08-17T08:03:29.922Z,46.47
2018-08-17T08:04:29.851Z,46.13
2018-08-17T08:05:29.854Z,44.54
2018-08-17T08:06:29.831Z,43.95
2018-08-17T08:07:29.803Z,44.18
2018-08-17T08:08:29.791Z,45.98
2018-08-17T08:09:29.762Z,44.15
2018-08-17T08:10:29.753Z,42.62
2018-08-17T08:11:29.743Z,42.82
2018-08-17T08:12:29.717Z,43.74
2018-08-17T08:13:29.708Z,40.76
2018-08-17T08:14:29.683Z,39.82
2018-08-17T08:15:29.698Z,39.94
2018-08-17T08:16:29.650Z,39.76
2018-08-17T08:17:29.637Z,39.17
2018-08-17T08:18:29.607Z,39.15
2018-08-17T08:19:29.599Z,37.95
2018-08-17T08:20:29.722Z,39.03
2018-08-17T08:21:29.571Z,39.68
2018-08-17T08:22:29.550Z,39.86
2018-08-17T08:23:29.533Z,39.45
2018-08-17T08:24:29.510Z,39.53
2018-08-17T08:25:29.505Z,40.33
2018-08-17T08:26:29.484Z,40.23
2018-08-17T08:27:29.482Z,40.72
2018-08-17T08:28:29.465Z,41.27
2018-08-17T08:29:29.447Z,42.25
2018-08-17T08:30:29.413Z,42.33
2018-08-17T08:31:29.395Z,42.33
2018-08-17T08:32:29.518Z,42.50
2018-08-17T08:33:29.372Z,42.93
2018-08-17T08:34:29.362Z,43.56
2018-08-17T08:35:29.344Z,42.33
2018-08-17T08:36:29.318Z,42.31
2018-08-17T08:37:29.308Z,43.12
2018-08-17T08:38:29.288Z,42.23
2018-08-17T08:39:29.277Z,42.47
2018-08-17T08:40:29.267Z,41.11
2018-08-17T08:41:29.228Z,40.33
2018-08-17T08:42:29.235Z,40.03
2018-08-17T08:43:29.206Z,39.86
2018-08-17T08:44:29.224Z,40.06
2018-08-17T08:45:29.202Z,39.76
2018-08-17T08:46:29.169Z,38.52
2018-08-17T08:47:29.128Z,38.15
2018-08-17T08:48:29.209Z,38.05
2018-08-17T08:49:29.103Z,36.87
2018-08-17T08:50:29.091Z,36.93
2018-08-17T08:51:29.080Z,38.58
2018-08-17T08:52:29.077Z,38.60
2018-08-17T08:53:29.038Z,36.85
2018-08-17T08:54:29.033Z,36.65
2018-08-17T08:55:29.026Z,37.93
2018-08-17T08:56:28.995Z,36.93
2018-08-17T08:57:28.990Z,37.93
2018-08-17T08:58:28.957Z,36.38
2018-08-17T08:59:28.993Z,36.47
2018-08-17T09:00:29.001Z,37.55
2018-08-17T09:01:28.915Z,38.17
2018-08-17T09:02:28.915Z,36.49
2018-08-17T09:03:28.880Z,36.79
2018-08-17T09:04:28.867Z,36.10
2018-08-17T09:05:28.854Z,36.28
2018-08-17T09:06:28.831Z,36.77
2018-08-17T09:07:28.816Z,36.30
2018-08-17T09:08:28.803Z,35.80
2018-08-17T09:09:28.809Z,35.82
2018-08-17T09:10:28.782Z,35.90
2018-08-17T09:11:28.883Z,36.43
2018-08-17T09:12:28.756Z,35.84
2018-08-17T09:13:28.730Z,34.28
2018-08-17T09:14:28.739Z,33.59
2018-08-17T09:15:28.703Z,35.25
2018-08-17T09:16:28.679Z,34.84
2018-08-17T09:17:28.673Z,34.63
2018-08-17T09:18:28.660Z,34.30
2018-08-17T09:19:28.658Z,35.95
2018-08-17T09:20:28.698Z,36.85
2018-08-17T09:21:28.621Z,36.55
2018-08-17T09:22:28.588Z,36.20
2018-08-17T09:23:28.591Z,34.66
2018-08-17T09:24:28.570Z,33.48
2018-08-17T09:25:28.546Z,33.29
2018-08-17T09:26:28.542Z,33.34
2018-08-17T09:27:28.555Z,34.80
2018-08-17T09:28:28.496Z,36.28
2018-08-17T09:29:28.496Z,37.18
2018-08-17T09:30:28.563Z,35.51
2018-08-17T09:31:28.475Z,34.72
2018-08-17T09:32:28.455Z,34.51
2018-08-17T09:33:28.429Z,35.80
2018-08-17T09:34:28.408Z,34.92
2018-08-17T09:35:28.399Z,34.44
2018-08-17T09:36:28.381Z,34.86
2018-08-17T09:37:28.380Z,33.58
2018-08-17T09:38:28.348Z,32.92
2018-08-17T09:39:28.332Z,32.54
2018-08-17T09:40:28.364Z,33.03
2018-08-17T09:41:28.303Z,33.54
2018-08-17T09:42:28.292Z,32.37
2018-08-17T09:43:28.270Z,31.68
2018-08-17T09:44:28.264Z,32.09
2018-08-17T09:45:28.253Z,32.67
2018-08-17T09:46:28.239Z,32.16
2018-08-17T09:47:28.241Z,32.23
2018-08-17T09:48:28.208Z,32.64
2018-08-17T09:49:28.245Z,31.76
2018-08-17T09:50:28.175Z,32.29
2018-08-17T09:51:28.250Z,31.62
2018-08-17T09:52:28.260Z,31.29
2018-08-17T09:53:28.131Z,31.09
2018-08-17T09:54:28.123Z,30.92
2018-08-17T09:55:28.174Z,31.94
2018-08-17T09:56:28.088Z,29.85
2018-08-17T09:57:28.115Z,31.81
2018-08-17T09:58:28.071Z,30.98
2018-08-17T09:59:28.061Z,31.09
2018-08-17T10:00:28.042Z,30.69
2018-08-17T10:01:28.006Z,31.67
2018-08-17T10:02:28.006Z,32.04
2018-08-17T10:03:27.996Z,32.24
2018-08-17T10:04:27.986Z,31.83
2018-08-17T10:05:27.964Z,31.24
2018-08-17T10:06:27.943Z,31.83
2018-08-17T10:07:27.924Z,32.16
2018-08-17T10:08:27.924Z,31.35
2018-08-17T10:09:27.910Z,31.63
2018-08-17T10:10:27.885Z,31.23
2018-08-17T10:11:27.901Z,31.67
2018-08-17T10:12:27.877Z,31.70
2018-08-17T10:13:27.838Z,31.14
2018-08-17T10:14:27.843Z,30.37
2018-08-17T10:15:27.843Z,30.68
2018-08-17T10:16:27.813Z,30.96
2018-08-17T10:17:27.798Z,31.56
2018-08-17T10:18:27.778Z,29.62
2018-08-17T10:19:27.791Z,29.39
2018-08-17T10:20:27.745Z,31.52
2018-08-17T10:21:28.021Z,32.28
2018-08-17T10:22:27.733Z,33.72
2018-08-17T10:23:27.730Z,33.69
2018-08-17T10:24:27.721Z,34.64
2018-08-17T10:25:27.704Z,36.39
2018-08-17T10:26:27.674Z,35.34
2018-08-17T10:27:27.690Z,34.46
2018-08-17T10:28:27.626Z,34.64
2018-08-17T10:29:27.638Z,34.75
2018-08-17T10:30:27.598Z,34.26
2018-08-17T10:31:27.585Z,35.00
2018-08-17T10:32:27.587Z,35.68
2018-08-17T10:33:27.562Z,36.18
2018-08-17T10:34:27.542Z,34.28
2018-08-17T10:35:27.531Z,34.30
2018-08-17T10:36:27.516Z,32.74
2018-08-17T10:37:27.494Z,33.53
2018-08-17T10:38:27.482Z,32.38
2018-08-17T10:39:27.460Z,32.00
2018-08-17T10:40:27.446Z,33.18
2018-08-17T10:41:27.429Z,33.59
2018-08-17T10:42:27.421Z,33.44
2018-08-17T10:43:27.395Z,30.66
2018-08-17T10:44:27.376Z,30.07
2018-08-17T10:45:27.356Z,31.06
2018-08-17T10:46:27.344Z,30.66
2018-08-17T10:47:27.386Z,32.18
2018-08-17T10:48:27.318Z,33.02
2018-08-17T10:49:27.310Z,33.22
2018-08-17T10:50:27.279Z,33.31
2018-08-17T10:51:27.272Z,34.13
2018-08-17T10:52:27.242Z,32.29
2018-08-17T10:53:27.235Z,31.24
2018-08-17T10:54:27.215Z,31.26
2018-08-17T10:55:27.214Z,30.88
2018-08-17T10:56:27.205Z,31.13
2018-08-17T10:57:27.208Z,32.87
2018-08-17T10:58:27.143Z,32.15
2018-08-17T10:59:27.137Z,32.82
2018-08-17T11:00:27.113Z,33.89
2018-08-17T11:01:27.103Z,33.85
2018-08-17T11:02:27.109Z,35.41
2018-08-17T11:03:27.077Z,35.78
2018-08-17T11:04:27.062Z,34.78
2018-08-17T11:05:27.079Z,35.47
2018-08-17T11:06:27.018Z,35.27
2018-08-17T11:07:27.000Z,35.94
2018-08-17T11:08:26.989Z,36.04
2018-08-17T11:09:26.975Z,35.83
2018-08-17T11:10:26.968Z,36.92
2018-08-17T11:11:26.922Z,38.57
2018-08-17T11:12:26.929Z,38.86
2018-08-17T11:13:26.942Z,38.45
2018-08-17T11:14:26.893Z,39.04
2018-08-17T11:15:26.875Z,39.45
2018-08-17T11:16:26.853Z,39.37
2018-08-17T11:17:26.833Z,38.04
2018-08-17T11:18:26.817Z,36.98
2018-08-17T11:19:26.800Z,36.21
2018-08-17T11:20:26.781Z,35.14
2018-08-17T11:21:26.753Z,34.59
2018-08-17T11:22:26.735Z,33.13
2018-08-17T11:23:26.719Z,33.26
2018-08-17T11:24:26.700Z,31.00
2018-08-17T11:25:26.676Z,31.23
2018-08-17T11:26:26.665Z,31.98
2018-08-17T11:27:26.652Z,32.36
2018-08-17T11:28:26.622Z,32.33
2018-08-17T11:29:26.609Z,33.77
2018-08-17T11:30:26.585Z,33.56
2018-08-17T11:31:26.577Z,34.34
2018-08-17T11:32:26.560Z,35.55
2018-08-17T11:33:26.551Z,34.59
2018-08-17T11:34:26.617Z,33.70
2018-08-17T11:35:26.507Z,33.72
2018-08-17T11:36:26.499Z,32.15
2018-08-17T11:37:26.493Z,32.26
2018-08-17T11:38:26.451Z,31.95
2018-08-17T11:39:26.426Z,32.74
2018-08-17T11:40:26.409Z,32.84
2018-08-17T11:41:26.430Z,33.03
2018-08-17T11:42:26.373Z,32.51
2018-08-17T11:43:26.360Z,33.97
2018-08-17T11:44:26.345Z,33.36
2018-08-17T11:45:26.325Z,34.05
2018-08-17T11:46:26.320Z,33.94
2018-08-17T11:47:26.287Z,34.21
2018-08-17T11:48:26.273Z,33.94
2018-08-17T11:49:26.273Z,34.01
2018-08-17T11:50:26.256Z,34.15
2018-08-17T11:51:26.230Z,32.50
2018-08-17T11:52:26.210Z,32.12
2018-08-17T11:53:26.188Z,33.00
2018-08-17T11:54:26.172Z,32.18
2018-08-17T11:55:26.145Z,33.15
2018-08-17T11:56:26.127Z,33.25
2018-08-17T11:57:26.112Z,34.54
2018-08-17T11:58:26.090Z,34.62
2018-08-17T11:59:26.082Z,33.82
2018-08-17T12:00:26.051Z,34.41
2018-08-17T12:01:26.051Z,35.58
2018-08-17T12:02:26.035Z,34.70
2018-08-17T12:03:26.012Z,34.31
2018-08-17T12:04:25.988Z,34.62
2018-08-17T12:05:25.977Z,33.58
2018-08-17T12:06:26.042Z,32.31
2018-08-17T12:07:25.933Z,33.51
2018-08-17T12:08:25.935Z,31.36
2018-08-17T12:09:25.898Z,32.56
2018-08-17T12:10:25.879Z,31.67
2018-08-17T12:11:25.876Z,32.05
2018-08-17T12:12:25.830Z,32.90
2018-08-17T12:13:25.826Z,33.95
2018-08-17T12:14:25.793Z,34.72
2018-08-17T12:15:25.785Z,36.08
2018-08-17T12:16:25.771Z,36.94
2018-08-17T12:17:25.751Z,37.81
2018-08-17T12:18:25.756Z,38.57
2018-08-17T12:19:25.712Z,40.11
2018-08-17T12:20:25.685Z,40.88
2018-08-17T12:21:25.673Z,41.66
2018-08-17T12:22:25.751Z,42.22
2018-08-17T12:23:25.684Z,42.03
2018-08-17T12:24:25.783Z,43.10
2018-08-17T12:25:25.656Z,42.13
2018-08-17T12:26:25.598Z,42.32
2018-08-17T12:27:25.557Z,43.20
2018-08-17T12:28:25.548Z,42.03
2018-08-17T12:29:25.526Z,43.03
2018-08-17T12:30:25.514Z,42.83
2018-08-17T12:31:25.572Z,41.64
2018-08-17T12:32:25.482Z,42.42
2018-08-17T12:33:25.439Z,42.22
2018-08-17T12:34:25.518Z,42.61
2018-08-17T12:35:25.403Z,44.57
2018-08-17T12:36:25.392Z,42.35
2018-08-17T12:37:25.396Z,41.86
2018-08-17T12:38:25.350Z,42.46
2018-08-17T12:39:25.336Z,41.00
2018-08-17T12:40:25.323Z,41.00
2018-08-17T12:41:25.284Z,41.88
2018-08-17T12:42:25.266Z,41.23
2018-08-17T12:43:25.239Z,41.76
2018-08-17T12:44:25.221Z,39.82
2018-08-17T12:45:25.193Z,37.48
2018-08-17T12:46:25.243Z,38.45
2018-08-17T12:47:25.153Z,39.01
2018-08-17T12:48:25.124Z,38.04
2018-08-17T12:49:25.106Z,38.84
2018-08-17T12:50:25.095Z,39.25
2018-08-17T12:51:25.071Z,39.14
2018-08-17T12:52:25.126Z,39.03
2018-08-17T12:53:25.025Z,39.03
2018-08-17T12:54:25.016Z,38.85
2018-08-17T12:55:24.984Z,38.35
2018-08-17T12:56:24.973Z,38.37
2018-08-17T12:57:24.958Z,38.90
2018-08-17T12:58:24.937Z,38.52